Weather reports worldwide

Advertisment
Torrox, Spain (8484): temperature & dewpoint: 26.06.2020 07:00:00 - 02.07.2020 07:00:00 (CEST)Torrox, Spain (8484): wind speed & gusts: 26.06.2020 07:00:00 - 02.07.2020 07:00:00 (CEST)Torrox, Spain (8484): wind direction: 26.06.2020 07:00:00 - 02.07.2020 07:00:00 (CEST)Torrox, Spain (8484): reduced air pressure: 26.06.2020 07:00:00 - 02.07.2020 07:00:00 (CEST)Torrox, Spain (8484): precipitation: 26.06.2020 07:00:00 - 02.07.2020 07:00:00 (CEST)
Date & Time tt [°C] td [°C] ff [km/h] ff [kn] fx [km/h] fx [kn] dd ppp [hPa] rr [mm]
02.07.2020 07:00:00 - - - - - - - - -
02.07.2020 06:00:00 21,0 17,6 5 3 10 5 WNW 1011,4 0,0
02.07.2020 05:00:00 20,1 16,1 4 2 16 8 N 1011,5 0,0
02.07.2020 04:00:00 20,6 17,2 7 4 13 7 N 1011,9 0,0
02.07.2020 03:00:00 21,5 17,9 3 2 8 4 NNE 1012,7 0,0
02.07.2020 02:00:00 21,7 18,1 3 2 6 3 N 1012,7 -
02.07.2020 01:00:00 22,1 18,5 3 1 6 3 N 1013,2 0,0
02.07.2020 00:00:00 23,3 19,4 5 3 12 6 WNW 1012,4 0,0
01.07.2020 23:00:00 24,6 18,3 9 5 14 8 WNW 1011,7 0,0
01.07.2020 22:00:00 24,7 18,6 13 7 17 9 WNW 1011,8 0,0
01.07.2020 21:00:00 25,5 19,1 10 5 14 8 WNW 1011,6 0,0
01.07.2020 20:00:00 27,6 17,5 12 7 16 9 WNW 1011,7 -
01.07.2020 19:00:00 28,5 19,1 13 7 18 10 WNW 1012,1 0,0
01.07.2020 18:00:00 29,1 18,8 14 8 18 10 WNW 1012,5 0,0
01.07.2020 17:00:00 28,6 18,7 10 5 20 11 WNW 1012,8 0,0
01.07.2020 16:00:00 27,5 19,8 13 7 15 8 W 1012,9 0,0
01.07.2020 15:00:00 26,4 20,3 12 7 21 12 W 1013,2 0,0
01.07.2020 14:00:00 25,7 20,5 11 6 13 7 WNW 1013,3 -
01.07.2020 13:00:00 25,5 20,5 9 5 11 6 WNW 1013,8 0,0
01.07.2020 12:00:00 27,2 21,0 7 4 9 5 W 1014,1 0,0
01.07.2020 11:00:00 26,6 21,6 1 0 8 4 WSW 1013,8 0,0
01.07.2020 10:00:00 24,0 21,7 6 4 18 10 WNW 1013,6 0,0
01.07.2020 09:00:00 22,2 20,5 9 5 14 8 WNW 1013,5 0,0
01.07.2020 08:00:00 19,9 16,0 6 3 9 5 N 1013,5 -
01.07.2020 07:00:00 18,8 15,9 6 4 9 5 N 1012,8 0,0
01.07.2020 06:00:00 19,1 16,5 5 3 10 5 N 1012,4 0,0
01.07.2020 05:00:00 19,3 18,3 3 2 16 9 NW 1012,2 0,0
01.07.2020 04:00:00 21,5 20,5 13 7 16 9 WNW 1012,3 0,0
01.07.2020 03:00:00 21,6 20,3 7 4 15 8 WNW 1012,9 0,0
01.07.2020 02:00:00 21,9 19,4 4 2 8 4 WNW 1013,3 -
01.07.2020 01:00:00 21,9 20,2 5 3 10 5 NW 1013,3 0,0
01.07.2020 00:00:00 22,2 20,7 6 4 11 6 WNW 1013,6 0,0
30.06.2020 23:00:00 22,9 21,0 8 5 11 6 WNW 1013,4 0,0
30.06.2020 22:00:00 23,2 21,3 6 4 16 8 WNW 1012,9 0,0
30.06.2020 21:00:00 24,1 21,6 11 6 14 7 WNW 1011,9 0,0
30.06.2020 20:00:00 25,5 21,8 10 5 13 7 WNW 1011,9 -
30.06.2020 19:00:00 26,6 21,8 10 5 12 6 WNW 1011,9 0,0
30.06.2020 18:00:00 27,4 21,4 10 6 12 6 W 1012,4 0,0
30.06.2020 17:00:00 28,0 21,8 10 5 14 7 WSW 1012,9 0,0
30.06.2020 16:00:00 28,3 21,6 10 5 12 7 WSW 1013,3 0,0
30.06.2020 15:00:00 28,2 21,5 8 4 9 5 W 1013,9 0,0
30.06.2020 14:00:00 27,0 21,1 5 3 9 5 W 1014,2 -
30.06.2020 13:00:00 27,6 22,3 5 3 7 4 W 1014,5 0,0
30.06.2020 12:00:00 25,5 21,8 1 1 6 3 SSW 1014,3 0,0
30.06.2020 11:00:00 24,4 20,7 7 4 12 7 SSW 1013,8 0,0
30.06.2020 10:00:00 24,2 20,3 6 3 10 5 ESE 1013,2 0,0
30.06.2020 09:00:00 23,8 17,5 8 4 10 6 E 1012,9 0,0
30.06.2020 08:00:00 21,3 14,2 0 0 8 4 E 1012,7 -
30.06.2020 07:00:00 21,5 12,6 7 4 14 7 N 1012,2 0,0
30.06.2020 06:00:00 20,7 14,8 9 5 13 7 NNE 1012,1 0,0
30.06.2020 05:00:00 20,4 13,4 8 4 10 5 NNE 1012,1 0,0
30.06.2020 04:00:00 21,1 15,0 8 5 10 5 WNW 1011,9 0,0
30.06.2020 03:00:00 20,8 14,9 3 1 7 4 WNW 1012,7 0,0
30.06.2020 02:00:00 21,1 17,1 5 3 10 5 NW 1013,5 -
30.06.2020 01:00:00 20,2 17,8 4 2 13 7 N 1014,1 0,0
30.06.2020 00:00:00 23,3 21,4 11 6 18 10 E 1014,3 0,0
29.06.2020 23:00:00 23,5 19,8 15 8 18 10 E 1014,5 0,0
29.06.2020 22:00:00 23,4 19,6 12 7 14 8 ESE 1013,9 0,0
29.06.2020 21:00:00 24,3 19,3 6 4 9 5 E 1013,7 0,0
29.06.2020 20:00:00 25,7 19,6 3 2 13 7 W 1013,4 -
29.06.2020 19:00:00 26,7 18,3 10 6 12 7 WNW 1013,3 0,0
29.06.2020 18:00:00 29,0 18,5 4 2 5 3 WSW 1013,9 0,0
29.06.2020 17:00:00 26,9 17,9 3 1 5 3 SSE 1014,4 0,0
29.06.2020 16:00:00 27,4 17,5 3 1 6 3 SSW 1015,2 0,0
29.06.2020 15:00:00 24,9 19,1 6 3 10 5 SE 1015,7 0,0
29.06.2020 14:00:00 24,6 21,1 8 4 12 7 SE 1016,4 -
29.06.2020 13:00:00 24,4 21,1 12 7 16 9 ESE 1017,0 0,0
29.06.2020 12:00:00 26,1 19,5 11 6 14 8 E 1016,8 0,0
29.06.2020 11:00:00 24,6 19,4 5 3 6 4 ESE 1016,1 0,0
29.06.2020 10:00:00 24,9 18,6 1 1 7 4 S 1016,1 0,0
29.06.2020 09:00:00 23,6 17,6 6 3 9 5 WNW 1016,0 0,0
29.06.2020 08:00:00 23,0 13,2 7 4 16 9 E 1015,5 -
29.06.2020 07:00:00 21,4 17,0 14 8 16 9 ESE 1015,0 0,0
29.06.2020 06:00:00 21,1 13,1 1 1 9 5 NW 1014,6 0,0
29.06.2020 05:00:00 21,4 15,7 6 3 10 6 WNW 1015,0 0,0
29.06.2020 04:00:00 21,1 15,0 5 3 9 5 ENE 1015,7 0,0
29.06.2020 03:00:00 21,4 14,0 6 3 11 6 N 1016,2 0,0
29.06.2020 02:00:00 21,4 14,5 8 4 10 6 NNE 1016,9 -
29.06.2020 01:00:00 20,0 18,3 8 4 10 5 NNE 1017,3 0,0
29.06.2020 00:00:00 21,3 20,3 1 1 5 3 E 1017,3 0,0
28.06.2020 23:00:00 21,9 20,5 0 0 5 3 N 1016,7 0,0
28.06.2020 22:00:00 22,2 20,7 2 1 10 5 E 1016,4 0,0
28.06.2020 21:00:00 23,2 21,4 10 6 15 8 ESE 1015,6 0,0
28.06.2020 20:00:00 24,1 21,4 14 7 16 9 E 1015,2 -
28.06.2020 19:00:00 23,5 21,6 12 6 15 8 ESE 1015,5 0,0
28.06.2020 18:00:00 24,1 21,6 13 7 15 8 ESE 1016,1 0,0
28.06.2020 17:00:00 24,2 21,9 9 5 13 7 SE 1016,2 0,0
28.06.2020 16:00:00 24,5 21,3 12 6 16 9 E 1016,3 0,0
28.06.2020 15:00:00 23,5 21,0 16 9 18 10 ESE 1016,6 0,0
28.06.2020 14:00:00 23,7 21,0 18 10 22 12 ESE 1017,2 -
28.06.2020 13:00:00 23,8 20,7 21 12 27 15 ESE 1017,4 0,0
28.06.2020 12:00:00 24,3 19,8 23 12 29 16 E 1017,1 0,0
28.06.2020 11:00:00 23,1 21,0 17 9 19 10 ESE 1017,0 0,0
28.06.2020 10:00:00 22,9 20,6 14 8 20 11 E 1016,8 0,0
28.06.2020 09:00:00 21,4 19,3 17 9 20 11 ESE 1016,4 0,0
28.06.2020 08:00:00 21,4 19,0 9 5 11 6 ESE 1016,0 -
28.06.2020 07:00:00 19,8 17,4 2 1 6 3 E 1015,3 0,0
28.06.2020 06:00:00 19,5 16,6 3 2 5 3 NE 1015,3 0,0
28.06.2020 05:00:00 19,7 16,3 0 0 6 4 NE 1015,4 0,0
28.06.2020 04:00:00 19,8 18,1 1 1 10 5 NE 1015,5 0,0
28.06.2020 03:00:00 20,6 18,9 4 2 8 4 E 1015,9 0,0
28.06.2020 02:00:00 20,6 19,3 5 3 14 7 ENE 1016,0 -
28.06.2020 01:00:00 21,2 19,8 12 7 23 13 E 1016,2 0,0
28.06.2020 00:00:00 21,1 20,3 22 12 26 14 E 1016,1 0,0
27.06.2020 23:00:00 21,4 20,6 23 12 25 14 ESE 1015,2 0,0
27.06.2020 22:00:00 21,8 20,3 9 5 12 6 ESE 1014,1 0,0
27.06.2020 21:00:00 23,2 20,7 7 4 10 5 ESE 1013,6 0,0
27.06.2020 20:00:00 25,4 20,2 2 1 9 5 SE 1013,7 -
27.06.2020 19:00:00 25,5 20,5 7 4 10 5 W 1014,1 0,0
27.06.2020 18:00:00 26,9 20,5 7 4 9 5 W 1014,5 0,0
27.06.2020 17:00:00 26,8 20,2 7 4 10 5 WNW 1015,1 0,0
27.06.2020 16:00:00 25,8 19,4 9 5 13 7 W 1015,2 0,0
27.06.2020 15:00:00 26,2 18,8 4 2 5 3 WSW 1015,7 0,0
27.06.2020 14:00:00 24,2 19,5 2 1 5 3 SSE 1016,1 -
27.06.2020 13:00:00 22,3 19,6 5 3 16 9 S 1016,3 0,0
27.06.2020 12:00:00 22,0 19,2 17 9 26 14 ESE 1016,1 0,0
27.06.2020 11:00:00 22,5 19,6 20 11 26 14 E 1015,9 0,0
27.06.2020 10:00:00 22,3 19,3 14 7 20 11 E 1015,5 0,0
27.06.2020 09:00:00 21,8 18,8 11 6 16 9 E 1014,9 0,0
27.06.2020 08:00:00 20,4 16,4 4 2 9 5 E 1014,6 -
27.06.2020 07:00:00 19,2 14,9 5 3 8 4 E 1014,1 0,0
27.06.2020 06:00:00 19,3 12,1 2 1 9 5 NNW 1013,8 0,0
27.06.2020 05:00:00 18,8 13,5 0 0 8 4 NE 1013,6 0,0
27.06.2020 04:00:00 20,0 18,5 5 3 16 9 WNW 1013,7 0,0
27.06.2020 03:00:00 20,5 19,1 11 6 14 7 WNW 1014,0 0,0
27.06.2020 02:00:00 20,4 19,4 8 5 13 7 WNW 1014,4 -
27.06.2020 01:00:00 20,7 19,7 1 0 8 4 NNW 1014,3 0,0
27.06.2020 00:00:00 21,3 19,8 4 2 10 5 WNW 1013,8 0,0
26.06.2020 23:00:00 21,9 19,4 3 2 9 5 WNW 1013,3 0,0
26.06.2020 22:00:00 22,8 19,2 5 3 9 5 WNW 1012,8 0,0
26.06.2020 21:00:00 24,5 20,2 4 2 9 5 W 1012,8 0,0
26.06.2020 20:00:00 25,2 20,5 7 4 10 5 W 1012,9 -
26.06.2020 19:00:00 26,4 21,2 5 3 10 5 W 1013,0 0,0
26.06.2020 18:00:00 25,9 20,0 6 4 10 6 W 1013,7 0,0
26.06.2020 17:00:00 26,2 20,3 9 5 10 6 WSW 1014,3 0,0
26.06.2020 16:00:00 26,3 20,4 7 4 13 7 W 1014,9 0,0
26.06.2020 15:00:00 25,3 19,4 10 5 13 7 W 1015,7 0,0
26.06.2020 14:00:00 25,7 19,8 8 4 11 6 WSW 1015,8 -
26.06.2020 13:00:00 25,0 20,3 10 6 14 7 W 1015,4 0,0
26.06.2020 12:00:00 24,8 19,8 10 5 11 6 WSW 1015,2 0,0
26.06.2020 11:00:00 26,5 19,3 4 2 10 5 WSW 1015,3 0,0
26.06.2020 10:00:00 25,2 18,2 5 3 6 4 WSW 1015,4 0,0
26.06.2020 09:00:00 22,8 17,1 0 0 1 1 N 1015,2 0,0
26.06.2020 08:00:00 20,9 16,7 1 0 6 3 NE 1014,8 -
26.06.2020 07:00:00 19,7 14,0 3 2 8 4 NNE 1014,4 0,0

tt = temperature
td = dewpoint
ff = wind speed
fx = gusts
dd = wind direction
ppp = reduced air pressure
rr = precipitation

Next stations